sensor_id;sensor_type;location;lat;lon;timestamp;pressure;altitude;pressure_sealevel;temperature;humidity
64872;BME280;51351;51.450;6.614;2024-01-15T00:02:09;100203.97;;;0.54;100.00
64872;BME280;51351;51.450;6.614;2024-01-15T00:04:38;100190.97;;;0.57;100.00
64872;BME280;51351;51.450;6.614;2024-01-15T00:07:04;100191.59;;;0.61;100.00
64872;BME280;51351;51.450;6.614;2024-01-15T00:09:30;100186.28;;;0.64;100.00
64872;BME280;51351;51.450;6.614;2024-01-15T00:11:55;100175.00;;;0.66;100.00
64872;BME280;51351;51.450;6.614;2024-01-15T00:14:21;100174.00;;;0.69;100.00
64872;BME280;51351;51.450;6.614;2024-01-15T00:16:46;100167.94;;;0.70;100.00
64872;BME280;51351;51.450;6.614;2024-01-15T00:19:14;100172.16;;;0.71;100.00
64872;BME280;51351;51.450;6.614;2024-01-15T00:21:39;100172.16;;;0.71;100.00
64872;BME280;51351;51.450;6.614;2024-01-15T00:24:05;100170.25;;;0.74;100.00
64872;BME280;51351;51.450;6.614;2024-01-15T00:26:30;100170.25;;;0.74;100.00
64872;BME280;51351;51.450;6.614;2024-01-15T00:28:56;100166.75;;;0.75;100.00
64872;BME280;51351;51.450;6.614;2024-01-15T00:31:21;100158.16;;;0.76;100.00
64872;BME280;51351;51.450;6.614;2024-01-15T00:33:47;100158.03;;;0.78;100.00
64872;BME280;51351;51.450;6.614;2024-01-15T00:36:12;100166.59;;;0.78;100.00
64872;BME280;51351;51.450;6.614;2024-01-15T00:38:39;100158.16;;;0.76;100.00
64872;BME280;51351;51.450;6.614;2024-01-15T00:41:05;100157.13;;;0.79;100.00
64872;BME280;51351;51.450;6.614;2024-01-15T00:43:30;100141.72;;;0.79;100.00
64872;BME280;51351;51.450;6.614;2024-01-15T00:45:56;100143.38;;;0.80;100.00
64872;BME280;51351;51.450;6.614;2024-01-15T00:48:21;100150.97;;;0.81;100.00
64872;BME280;51351;51.450;6.614;2024-01-15T00:50:47;100152.53;;;0.84;100.00
64872;BME280;51351;51.450;6.614;2024-01-15T00:53:12;100141.44;;;0.83;100.00
64872;BME280;51351;51.450;6.614;2024-01-15T00:55:38;100150.81;;;0.84;100.00
64872;BME280;51351;51.450;6.614;2024-01-15T00:58:03;100147.22;;;0.87;100.00
64872;BME280;51351;51.450;6.614;2024-01-15T01:00:29;100146.50;;;0.85;100.00
64872;BME280;51351;51.450;6.614;2024-01-15T01:02:54;100131.97;;;0.84;100.00
64872;BME280;51351;51.450;6.614;2024-01-15T01:05:20;100132.72;;;0.86;100.00
64872;BME280;51351;51.450;6.614;2024-01-15T01:07:45;100143.94;;;0.85;100.00
64872;BME280;51351;51.450;6.614;2024-01-15T01:10:11;100140.44;;;0.86;100.00
64872;BME280;51351;51.450;6.614;2024-01-15T01:12:36;100134.38;;;0.87;100.00
64872;BME280;51351;51.450;6.614;2024-01-15T01:15:02;100119.78;;;0.87;100.00
64872;BME280;51351;51.450;6.614;2024-01-15T01:17:28;100134.28;;;0.88;100.00
64872;BME280;51351;51.450;6.614;2024-01-15T01:19:53;100136.84;;;0.88;100.00
64872;BME280;51351;51.450;6.614;2024-01-15T01:22:19;100139.41;;;0.88;100.00
64872;BME280;51351;51.450;6.614;2024-01-15T01:24:44;100139.41;;;0.88;100.00
64872;BME280;51351;51.450;6.614;2024-01-15T01:27:10;100134.19;;;0.90;100.00
64872;BME280;51351;51.450;6.614;2024-01-15T01:29:35;100128.22;;;0.89;100.00
64872;BME280;51351;51.450;6.614;2024-01-15T01:32:01;100128.31;;;0.88;100.00
64872;BME280;51351;51.450;6.614;2024-01-15T01:34:26;100135.22;;;0.87;100.00
64872;BME280;51351;51.450;6.614;2024-01-15T01:36:52;100127.41;;;0.89;100.00
64872;BME280;51351;51.450;6.614;2024-01-15T01:39:17;100129.97;;;0.89;100.00
64872;BME280;51351;51.450;6.614;2024-01-15T01:41:43;100124.84;;;0.89;100.00
64872;BME280;51351;51.450;6.614;2024-01-15T01:44:08;100133.34;;;0.89;100.00
64872;BME280;51351;51.450;6.614;2024-01-15T01:46:35;100131.63;;;0.90;100.00
64872;BME280;51351;51.450;6.614;2024-01-15T01:49:06;100142.75;;;0.90;100.00
64872;BME280;51351;51.450;6.614;2024-01-15T01:51:34;100143.53;;;0.91;100.00
64872;BME280;51351;51.450;6.614;2024-01-15T01:54:00;100138.31;;;0.92;100.00
64872;BME280;51351;51.450;6.614;2024-01-15T01:56:26;100146.88;;;0.93;100.00
64872;BME280;51351;51.450;6.614;2024-01-15T01:58:52;100137.41;;;0.93;100.00
64872;BME280;51351;51.450;6.614;2024-01-15T02:01:18;100145.03;;;0.95;100.00
64872;BME280;51351;51.450;6.614;2024-01-15T02:03:44;100147.59;;;0.95;100.00
64872;BME280;51351;51.450;6.614;2024-01-15T02:06:10;100143.28;;;0.95;100.00
64872;BME280;51351;51.450;6.614;2024-01-15T02:08:36;100140.69;;;0.95;100.00
64872;BME280;51351;51.450;6.614;2024-01-15T02:11:01;100140.63;;;0.97;100.00
64872;BME280;51351;51.450;6.614;2024-01-15T02:13:27;100130.25;;;0.98;100.00
64872;BME280;51351;51.450;6.614;2024-01-15T02:15:52;100138.03;;;0.97;100.00
64872;BME280;51351;51.450;6.614;2024-01-15T02:18:18;100143.19;;;0.97;100.00
64872;BME280;51351;51.450;6.614;2024-01-15T02:20:43;100147.44;;;0.98;100.00
64872;BME280;51351;51.450;6.614;2024-01-15T02:23:13;100147.44;;;0.98;100.00
64872;BME280;51351;51.450;6.614;2024-01-15T02:25:43;100132.81;;;0.98;100.00
64872;BME280;51351;51.450;6.614;2024-01-15T02:28:12;100138.78;;;0.99;100.00
64872;BME280;51351;51.450;6.614;2024-01-15T02:30:39;100134.47;;;0.99;100.00
64872;BME280;51351;51.450;6.614;2024-01-15T02:33:05;100139.59;;;0.99;100.00
64872;BME280;51351;51.450;6.614;2024-01-15T02:35:31;100138.78;;;0.99;100.00
64872;BME280;51351;51.450;6.614;2024-01-15T02:37:56;100140.44;;;1.00;100.00
64872;BME280;51351;51.450;6.614;2024-01-15T02:40:21;100137.16;;;0.98;100.00
64872;BME280;51351;51.450;6.614;2024-01-15T02:42:47;100130.41;;;0.95;100.00
64872;BME280;51351;51.450;6.614;2024-01-15T02:45:12;100129.53;;;0.96;100.00
64872;BME280;51351;51.450;6.614;2024-01-15T02:47:38;100132.91;;;0.97;100.00
64872;BME280;51351;51.450;6.614;2024-01-15T02:50:04;100136.31;;;0.97;100.00
64872;BME280;51351;51.450;6.614;2024-01-15T02:52:29;100139.59;;;0.99;100.00
64872;BME280;51351;51.450;6.614;2024-01-15T02:54:55;100130.16;;;1.00;100.00
64872;BME280;51351;51.450;6.614;2024-01-15T02:57:20;100131.00;;;1.00;100.00
64872;BME280;51351;51.450;6.614;2024-01-15T02:59:46;100120.88;;;0.97;100.00
64872;BME280;51351;51.450;6.614;2024-01-15T03:02:11;100130.50;;;0.94;100.00
64872;BME280;51351;51.450;6.614;2024-01-15T03:04:37;100128.13;;;0.91;100.00
64872;BME280;51351;51.450;6.614;2024-01-15T03:07:02;100120.59;;;0.88;100.00
64872;BME280;51351;51.450;6.614;2024-01-15T03:09:28;100126.66;;;0.87;100.00
64872;BME280;51351;51.450;6.614;2024-01-15T03:11:53;100130.06;;;0.87;100.00
64872;BME280;51351;51.450;6.614;2024-01-15T03:14:19;100116.28;;;0.88;100.00
64872;BME280;51351;51.450;6.614;2024-01-15T03:16:45;100118.84;;;0.88;100.00
64872;BME280;51351;51.450;6.614;2024-01-15T03:19:11;100120.50;;;0.89;100.00
64872;BME280;51351;51.450;6.614;2024-01-15T03:21:36;100122.16;;;0.90;100.00
64872;BME280;51351;51.450;6.614;2024-01-15T03:24:02;100123.06;;;0.89;100.00
64872;BME280;51351;51.450;6.614;2024-01-15T03:26:27;100118.13;;;0.86;100.00
64872;BME280;51351;51.450;6.614;2024-01-15T03:28:53;100117.56;;;0.81;100.00
64872;BME280;51351;51.450;6.614;2024-01-15T03:31:18;100124.53;;;0.79;100.00
64872;BME280;51351;51.450;6.614;2024-01-15T03:33:44;100120.41;;;0.77;100.00
64872;BME280;51351;51.450;6.614;2024-01-15T03:36:09;100111.97;;;0.75;100.00
64872;BME280;51351;51.450;6.614;2024-01-15T03:38:40;100113.72;;;0.74;100.00
64872;BME280;51351;51.450;6.614;2024-01-15T03:41:06;100113.63;;;0.76;100.00
64872;BME280;51351;51.450;6.614;2024-01-15T03:43:31;100112.69;;;0.77;100.00
64872;BME280;51351;51.450;6.614;2024-01-15T03:45:57;100115.34;;;0.75;100.00
64872;BME280;51351;51.450;6.614;2024-01-15T03:48:22;100112.78;;;0.75;100.00
64872;BME280;51351;51.450;6.614;2024-01-15T03:50:48;100115.44;;;0.74;100.00
64872;BME280;51351;51.450;6.614;2024-01-15T03:53:13;100112.97;;;0.72;100.00
64872;BME280;51351;51.450;6.614;2024-01-15T03:55:38;100121.50;;;0.73;100.00
64872;BME280;51351;51.450;6.614;2024-01-15T03:58:04;100111.31;;;0.71;100.00
64872;BME280;51351;51.450;6.614;2024-01-15T04:00:29;100119.13;;;0.70;100.00
64872;BME280;51351;51.450;6.614;2024-01-15T04:02:55;100114.91;;;0.69;100.00
64872;BME280;51351;51.450;6.614;2024-01-15T04:05:20;100116.72;;;0.67;100.00
64872;BME280;51351;51.450;6.614;2024-01-15T04:07:46;100111.59;;;0.67;100.00
64872;BME280;51351;51.450;6.614;2024-01-15T04:10:11;100100.59;;;0.65;100.00
64872;BME280;51351;51.450;6.614;2024-01-15T04:12:37;100107.47;;;0.64;100.00
64872;BME280;51351;51.450;6.614;2024-01-15T04:15:03;100094.53;;;0.66;100.00
64872;BME280;51351;51.450;6.614;2024-01-15T04:17:28;100091.13;;;0.65;100.00
64872;BME280;51351;51.450;6.614;2024-01-15T04:19:54;100086.91;;;0.64;100.00
64872;BME280;51351;51.450;6.614;2024-01-15T04:22:20;100084.44;;;0.63;100.00
64872;BME280;51351;51.450;6.614;2024-01-15T04:24:45;100084.59;;;0.60;100.00
64872;BME280;51351;51.450;6.614;2024-01-15T04:27:11;100082.28;;;0.55;100.00
64872;BME280;51351;51.450;6.614;2024-01-15T04:29:39;100074.69;;;0.54;100.00
64872;BME280;51351;51.450;6.614;2024-01-15T04:32:05;100072.09;;;0.54;100.00
64872;BME280;51351;51.450;6.614;2024-01-15T04:34:31;100073.75;;;0.55;100.00
64872;BME280;51351;51.450;6.614;2024-01-15T04:36:56;100075.44;;;0.56;100.00
64872;BME280;51351;51.450;6.614;2024-01-15T04:39:22;100076.97;;;0.58;100.00
64872;BME280;51351;51.450;6.614;2024-01-15T04:41:48;100074.22;;;0.61;100.00
64872;BME280;51351;51.450;6.614;2024-01-15T04:44:13;100075.78;;;0.64;100.00
64872;BME280;51351;51.450;6.614;2024-01-15T04:46:39;100079.91;;;0.66;100.00
64872;BME280;51351;51.450;6.614;2024-01-15T04:49:04;100066.88;;;0.69;100.00
64872;BME280;51351;51.450;6.614;2024-01-15T04:51:30;100059.16;;;0.69;100.00
64872;BME280;51351;51.450;6.614;2024-01-15T04:53:55;100072.84;;;0.70;100.00
64872;BME280;51351;51.450;6.614;2024-01-15T04:56:21;100069.53;;;0.68;100.00
64872;BME280;51351;51.450;6.614;2024-01-15T04:58:46;100055.88;;;0.67;100.00
64872;BME280;51351;51.450;6.614;2024-01-15T05:01:12;100052.47;;;0.67;100.00
64872;BME280;51351;51.450;6.614;2024-01-15T05:03:37;100054.13;;;0.68;100.00
64872;BME280;51351;51.450;6.614;2024-01-15T05:06:03;100056.78;;;0.66;100.00
64872;BME280;51351;51.450;6.614;2024-01-15T05:08:29;100049.19;;;0.65;100.00
64872;BME280;51351;51.450;6.614;2024-01-15T05:10:54;100054.13;;;0.68;100.00
64872;BME280;51351;51.450;6.614;2024-01-15T05:13:19;100049.72;;;0.70;100.00
64872;BME280;51351;51.450;6.614;2024-01-15T05:15:45;100054.78;;;0.71;100.00
64872;BME280;51351;51.450;6.614;2024-01-15T05:18:10;100055.63;;;0.72;100.00
64872;BME280;51351;51.450;6.614;2024-01-15T05:20:36;100058.00;;;0.75;100.00
64872;BME280;51351;51.450;6.614;2024-01-15T05:23:01;100057.91;;;0.76;100.00
64872;BME280;51351;51.450;6.614;2024-01-15T05:25:27;100054.22;;;0.80;100.00
64872;BME280;51351;51.450;6.614;2024-01-15T05:27:52;100043.03;;;0.81;100.00
64872;BME280;51351;51.450;6.614;2024-01-15T05:30:18;100040.38;;;0.83;100.00
64872;BME280;51351;51.450;6.614;2024-01-15T05:32:43;100031.81;;;0.82;100.00
64872;BME280;51351;51.450;6.614;2024-01-15T05:35:09;100031.00;;;0.82;100.00
64872;BME280;51351;51.450;6.614;2024-01-15T05:37:34;100037.06;;;0.81;100.00
64872;BME280;51351;51.450;6.614;2024-01-15T05:40:00;100031.91;;;0.81;100.00
64872;BME280;51351;51.450;6.614;2024-01-15T05:42:25;100034.38;;;0.82;100.00
64872;BME280;51351;51.450;6.614;2024-01-15T05:44:51;100035.03;;;0.86;100.00
64872;BME280;51351;51.450;6.614;2024-01-15T05:47:17;100034.84;;;0.89;100.00
64872;BME280;51351;51.450;6.614;2024-01-15T05:49:43;100030.34;;;0.92;100.00
64872;BME280;51351;51.450;6.614;2024-01-15T05:52:09;100032.00;;;0.93;100.00
64872;BME280;51351;51.450;6.614;2024-01-15T05:54:35;100029.25;;;0.96;100.00
64872;BME280;51351;51.450;6.614;2024-01-15T05:57:00;100020.72;;;0.96;100.00
64872;BME280;51351;51.450;6.614;2024-01-15T05:59:26;100029.34;;;0.95;100.00
64872;BME280;51351;51.450;6.614;2024-01-15T06:01:51;100034.41;;;0.96;100.00
64872;BME280;51351;51.450;6.614;2024-01-15T06:04:16;100039.44;;;0.98;100.00
64872;BME280;51351;51.450;6.614;2024-01-15T06:06:42;100035.09;;;0.98;100.00
64872;BME280;51351;51.450;6.614;2024-01-15T06:09:08;100030.72;;;1.00;100.00
64872;BME280;51351;51.450;6.614;2024-01-15T06:11:34;100028.13;;;1.00;100.00
64872;BME280;51351;51.450;6.614;2024-01-15T06:14:00;100025.47;;;1.02;100.00
64872;BME280;51351;51.450;6.614;2024-01-15T06:16:28;100025.19;;;1.06;100.00
64872;BME280;51351;51.450;6.614;2024-01-15T06:18:54;100035.91;;;1.13;100.00
64872;BME280;51351;51.450;6.614;2024-01-15T06:21:19;100031.41;;;1.16;100.00
64872;BME280;51351;51.450;6.614;2024-01-15T06:23:45;100033.91;;;1.18;100.00
64872;BME280;51351;51.450;6.614;2024-01-15T06:26:13;100025.25;;;1.19;100.00
64872;BME280;51351;51.450;6.614;2024-01-15T06:28:39;100004.69;;;1.19;100.00
64872;BME280;51351;51.450;6.614;2024-01-15T06:31:06;100015.91;;;1.18;100.00
64872;BME280;51351;51.450;6.614;2024-01-15T06:33:32;100018.47;;;1.18;100.00
64872;BME280;51351;51.450;6.614;2024-01-15T06:35:58;100023.72;;;1.16;100.00
64872;BME280;51351;51.450;6.614;2024-01-15T06:38:23;100016.97;;;1.14;100.00
64872;BME280;51351;51.450;6.614;2024-01-15T06:40:50;100006.69;;;1.14;100.00
64872;BME280;51351;51.450;6.614;2024-01-15T06:43:17;100021.31;;;1.13;100.00
64872;BME280;51351;51.450;6.614;2024-01-15T06:45:45;100014.50;;;1.12;100.00
64872;BME280;51351;51.450;6.614;2024-01-15T06:48:11;100007.91;;;1.08;100.00
64872;BME280;51351;51.450;6.614;2024-01-15T06:50:40;100016.56;;;1.07;100.00
64872;BME280;51351;51.450;6.614;2024-01-15T06:53:05;100015.81;;;1.05;100.00
64872;BME280;51351;51.450;6.614;2024-01-15T06:55:31;100021.97;;;1.03;100.00
64872;BME280;51351;51.450;6.614;2024-01-15T06:57:56;100018.88;;;0.98;100.00
64872;BME280;51351;51.450;6.614;2024-01-15T07:00:22;100014.81;;;0.94;100.00
64872;BME280;51351;51.450;6.614;2024-01-15T07:02:47;100019.25;;;0.92;100.00
64872;BME280;51351;51.450;6.614;2024-01-15T07:05:13;100016.78;;;0.90;100.00
64872;BME280;51351;51.450;6.614;2024-01-15T07:07:38;100018.50;;;0.90;100.00
64872;BME280;51351;51.450;6.614;2024-01-15T07:10:05;100016.78;;;0.90;100.00
64872;BME280;51351;51.450;6.614;2024-01-15T07:12:31;100015.84;;;0.91;100.00
64872;BME280;51351;51.450;6.614;2024-01-15T07:14:56;100018.41;;;0.91;100.00
64872;BME280;51351;51.450;6.614;2024-01-15T07:17:22;100017.56;;;0.91;100.00
64872;BME280;51351;51.450;6.614;2024-01-15T07:19:48;100013.28;;;0.91;100.00
64872;BME280;51351;51.450;6.614;2024-01-15T07:22:13;100008.97;;;0.92;100.00
64872;BME280;51351;51.450;6.614;2024-01-15T07:24:40;100008.13;;;0.91;100.00
64872;BME280;51351;51.450;6.614;2024-01-15T07:27:05;100008.22;;;0.90;100.00
64872;BME280;51351;51.450;6.614;2024-01-15T07:29:31;99993.16;;;0.84;100.00
64872;BME280;51351;51.450;6.614;2024-01-15T07:31:58;100002.75;;;0.82;100.00
64872;BME280;51351;51.450;6.614;2024-01-15T07:34:24;100009.78;;;0.78;100.00
64872;BME280;51351;51.450;6.614;2024-01-15T07:36:49;100006.59;;;0.75;100.00
64872;BME280;51351;51.450;6.614;2024-01-15T07:39:15;100005.03;;;0.72;100.00
64872;BME280;51351;51.450;6.614;2024-01-15T07:41:40;99999.16;;;0.70;100.00
64872;BME280;51351;51.450;6.614;2024-01-15T07:44:06;100008.69;;;0.68;100.00
64872;BME280;51351;51.450;6.614;2024-01-15T07:46:31;100006.97;;;0.69;100.00
64872;BME280;51351;51.450;6.614;2024-01-15T07:48:57;100007.88;;;0.68;100.00
64872;BME280;51351;51.450;6.614;2024-01-15T07:51:26;100012.03;;;0.70;100.00
64872;BME280;51351;51.450;6.614;2024-01-15T07:53:53;100016.13;;;0.73;100.00
64872;BME280;51351;51.450;6.614;2024-01-15T07:56:19;100017.88;;;0.72;100.00
64872;BME280;51351;51.450;6.614;2024-01-15T07:58:44;100015.31;;;0.72;100.00
64872;BME280;51351;51.450;6.614;2024-01-15T08:01:10;100014.50;;;0.72;100.00
64872;BME280;51351;51.450;6.614;2024-01-15T08:03:35;100015.41;;;0.71;100.00
64872;BME280;51351;51.450;6.614;2024-01-15T08:06:01;100012.81;;;0.71;100.00
64872;BME280;51351;51.450;6.614;2024-01-15T08:08:27;100012.81;;;0.71;100.00
64872;BME280;51351;51.450;6.614;2024-01-15T08:10:52;100011.09;;;0.71;100.00
64872;BME280;51351;51.450;6.614;2024-01-15T08:13:18;100011.09;;;0.71;100.00
64872;BME280;51351;51.450;6.614;2024-01-15T08:15:44;100013.66;;;0.71;100.00
64872;BME280;51351;51.450;6.614;2024-01-15T08:18:09;100014.50;;;0.72;100.00
64872;BME280;51351;51.450;6.614;2024-01-15T08:20:35;100011.09;;;0.71;100.00
64872;BME280;51351;51.450;6.614;2024-01-15T08:23:02;100013.66;;;0.71;100.00
64872;BME280;51351;51.450;6.614;2024-01-15T08:25:28;100010.16;;;0.72;100.00
64872;BME280;51351;51.450;6.614;2024-01-15T08:27:53;100014.41;;;0.73;100.00
64872;BME280;51351;51.450;6.614;2024-01-15T08:30:18;100018.63;;;0.74;100.00
64872;BME280;51351;51.450;6.614;2024-01-15T08:32:45;100017.69;;;0.75;100.00
64872;BME280;51351;51.450;6.614;2024-01-15T08:35:11;100017.69;;;0.75;100.00
64872;BME280;51351;51.450;6.614;2024-01-15T08:37:38;100028.81;;;0.76;100.00
64872;BME280;51351;51.450;6.614;2024-01-15T08:40:03;100035.16;;;0.70;100.00
64872;BME280;51351;51.450;6.614;2024-01-15T08:42:29;100037.25;;;0.64;100.00
64872;BME280;51351;51.450;6.614;2024-01-15T08:44:55;100039.28;;;0.59;100.00
64872;BME280;51351;51.450;6.614;2024-01-15T08:47:20;100049.00;;;0.54;100.00
64872;BME280;51351;51.450;6.614;2024-01-15T08:49:46;100049.44;;;0.46;100.00
64872;BME280;51351;51.450;6.614;2024-01-15T08:52:12;100047.34;;;0.39;100.00
64872;BME280;51351;51.450;6.614;2024-01-15T08:54:39;100040.69;;;0.35;100.00
64872;BME280;51351;51.450;6.614;2024-01-15T08:57:04;100050.34;;;0.31;100.00
64872;BME280;51351;51.450;6.614;2024-01-15T08:59:32;100047.94;;;0.28;100.00
64872;BME280;51351;51.450;6.614;2024-01-15T09:01:57;100041.09;;;0.29;100.00
64872;BME280;51351;51.450;6.614;2024-01-15T09:04:23;100054.72;;;0.29;100.00
64872;BME280;51351;51.450;6.614;2024-01-15T09:06:49;100056.31;;;0.32;100.00
64872;BME280;51351;51.450;6.614;2024-01-15T09:09:15;100055.94;;;0.38;100.00
64872;BME280;51351;51.450;6.614;2024-01-15T09:11:41;100057.22;;;0.45;100.00
64872;BME280;51351;51.450;6.614;2024-01-15T09:14:07;100053.31;;;0.53;100.00
64872;BME280;51351;51.450;6.614;2024-01-15T09:16:34;100055.97;;;0.66;100.00
64872;BME280;51351;51.450;6.614;2024-01-15T09:19:00;100057.69;;;0.79;100.00
64872;BME280;51351;51.450;6.614;2024-01-15T09:21:27;100054.22;;;0.94;100.00
64872;BME280;51351;51.450;6.614;2024-01-15T09:24:18;100049.31;;;1.04;100.00
64872;BME280;51351;51.450;6.614;2024-01-15T09:26:48;100051.63;;;1.08;100.00
64872;BME280;51351;51.450;6.614;2024-01-15T09:29:13;100048.34;;;1.06;100.00
64872;BME280;51351;51.450;6.614;2024-01-15T09:31:41;100056.94;;;1.05;100.00
64872;BME280;51351;51.450;6.614;2024-01-15T09:34:27;100055.31;;;1.04;100.00
64872;BME280;51351;51.450;6.614;2024-01-15T09:36:52;100053.66;;;1.03;100.00
64872;BME280;51351;51.450;6.614;2024-01-15T09:39:18;100057.69;;;1.07;100.00
64872;BME280;51351;51.450;6.614;2024-01-15T09:41:47;100060.00;;;1.12;100.00
64872;BME280;51351;51.450;6.614;2024-01-15T09:44:17;100062.28;;;1.16;100.00
64872;BME280;51351;51.450;6.614;2024-01-15T09:46:43;100060.25;;;1.21;100.00
64872;BME280;51351;51.450;6.614;2024-01-15T09:49:10;100056.56;;;1.25;100.00
64872;BME280;51351;51.450;6.614;2024-01-15T09:51:36;100063.28;;;1.28;100.00
64872;BME280;51351;51.450;6.614;2024-01-15T09:54:02;100065.66;;;1.31;100.00
64872;BME280;51351;51.450;6.614;2024-01-15T09:56:30;100060.75;;;1.40;100.00
64872;BME280;51351;51.450;6.614;2024-01-15T09:58:57;100060.84;;;1.39;100.00
64872;BME280;51351;51.450;6.614;2024-01-15T10:01:23;100062.88;;;1.34;100.00
64872;BME280;51351;51.450;6.614;2024-01-15T10:03:49;100057.09;;;1.30;100.00
64872;BME280;51351;51.450;6.614;2024-01-15T10:06:16;100052.97;;;1.28;100.00
64872;BME280;51351;51.450;6.614;2024-01-15T10:08:44;100037.56;;;1.28;100.00
64872;BME280;51351;51.450;6.614;2024-01-15T10:11:12;100037.22;;;1.32;100.00
64872;BME280;51351;51.450;6.614;2024-01-15T10:13:39;100049.81;;;1.37;100.00
64872;BME280;51351;51.450;6.614;2024-01-15T10:16:04;100046.25;;;1.39;100.00
64872;BME280;51351;51.450;6.614;2024-01-15T10:18:30;100046.34;;;1.38;100.00
64872;BME280;51351;51.450;6.614;2024-01-15T10:20:56;100043.78;;;1.38;100.00
64872;BME280;51351;51.450;6.614;2024-01-15T10:23:23;100046.44;;;1.36;100.00
64872;BME280;51351;51.450;6.614;2024-01-15T10:25:48;100044.66;;;1.37;100.00
64872;BME280;51351;51.450;6.614;2024-01-15T10:28:14;100050.75;;;1.36;100.00
64872;BME280;51351;51.450;6.614;2024-01-15T10:30:40;100046.53;;;1.35;100.00
64872;BME280;51351;51.450;6.614;2024-01-15T10:33:05;100051.69;;;1.35;100.00
64872;BME280;51351;51.450;6.614;2024-01-15T10:35:34;100055.91;;;1.36;100.00
64872;BME280;51351;51.450;6.614;2024-01-15T10:38:00;100058.19;;;1.40;100.00
64872;BME280;51351;51.450;6.614;2024-01-15T10:40:27;100048.22;;;1.48;100.00
64872;BME280;51351;51.450;6.614;2024-01-15T10:42:52;100049.69;;;1.52;100.00
64872;BME280;51351;51.450;6.614;2024-01-15T10:45:39;100036.72;;;1.54;100.00
64872;BME280;51351;51.450;6.614;2024-01-15T10:48:11;100045.25;;;1.54;100.00
64872;BME280;51351;51.450;6.614;2024-01-15T10:50:37;100049.00;;;1.63;100.00
64872;BME280;51351;51.450;6.614;2024-01-15T10:53:04;100047.78;;;1.68;100.00
64872;BME280;51351;51.450;6.614;2024-01-15T10:55:30;100039.34;;;1.66;100.00
64872;BME280;51351;51.450;6.614;2024-01-15T10:57:57;100042.88;;;1.78;100.00
64872;BME280;51351;51.450;6.614;2024-01-15T11:00:22;100047.75;;;1.82;100.00
64872;BME280;51351;51.450;6.614;2024-01-15T11:02:51;100050.94;;;1.98;100.00
64872;BME280;51351;51.450;6.614;2024-01-15T11:05:21;100049.75;;;2.04;100.00
64872;BME280;51351;51.450;6.614;2024-01-15T11:07:50;100050.53;;;1.92;100.00
64872;BME280;51351;51.450;6.614;2024-01-15T11:13:01;100051.13;;;1.83;100.00
64872;BME280;51351;51.450;6.614;2024-01-15T11:15:27;100054.81;;;2.05;100.00
64872;BME280;51351;51.450;6.614;2024-01-15T11:17:57;100054.63;;;2.21;100.00
64872;BME280;51351;51.450;6.614;2024-01-15T11:20:23;100046.38;;;2.28;100.00
64872;BME280;51351;51.450;6.614;2024-01-15T11:22:48;100054.53;;;2.22;100.00
64872;BME280;51351;51.450;6.614;2024-01-15T11:25:14;100041.50;;;2.11;100.00
64872;BME280;51351;51.450;6.614;2024-01-15T11:27:40;100045.38;;;1.92;100.00
64872;BME280;51351;51.450;6.614;2024-01-15T11:30:07;100026.09;;;1.72;100.00
64872;BME280;51351;51.450;6.614;2024-01-15T11:32:34;100047.75;;;1.56;100.00
64872;BME280;51351;51.450;6.614;2024-01-15T11:35:01;100051.78;;;1.33;100.00
64872;BME280;51351;51.450;6.614;2024-01-15T11:40:40;100055.78;;;1.37;100.00
64872;BME280;51351;51.450;6.614;2024-01-15T11:43:06;100049.63;;;1.40;100.00
64872;BME280;51351;51.450;6.614;2024-01-15T11:45:34;100057.28;;;1.54;100.00
64872;BME280;51351;51.450;6.614;2024-01-15T11:48:13;100057.66;;;1.62;100.00
64872;BME280;51351;51.450;6.614;2024-01-15T11:50:41;100053.47;;;1.73;100.00
64872;BME280;51351;51.450;6.614;2024-01-15T11:53:12;100048.75;;;1.80;100.00
64872;BME280;51351;51.450;6.614;2024-01-15T11:55:43;100044.56;;;1.91;100.00
64872;BME280;51351;51.450;6.614;2024-01-15T11:58:11;100043.88;;;2.02;100.00
64872;BME280;51351;51.450;6.614;2024-01-15T12:00:43;100047.06;;;2.05;100.00
64872;BME280;51351;51.450;6.614;2024-01-15T12:03:25;100034.81;;;2.09;100.00
64872;BME280;51351;51.450;6.614;2024-01-15T12:06:07;100033.97;;;2.08;100.00
64872;BME280;51351;51.450;6.614;2024-01-15T12:08:38;100038.63;;;2.03;100.00
64872;BME280;51351;51.450;6.614;2024-01-15T12:11:07;100032.31;;;2.07;100.00
64872;BME280;51351;51.450;6.614;2024-01-15T12:13:37;100035.16;;;2.17;100.00
64872;BME280;51351;51.450;6.614;2024-01-15T12:16:06;100031.84;;;2.27;100.00
64872;BME280;51351;51.450;6.614;2024-01-15T12:18:35;100035.25;;;2.40;100.00
64872;BME280;51351;51.450;6.614;2024-01-15T12:21:03;100034.53;;;2.51;100.00
64872;BME280;51351;51.450;6.614;2024-01-15T12:23:33;100034.44;;;2.53;100.00
64872;BME280;51351;51.450;6.614;2024-01-15T12:26:00;100028.84;;;2.46;100.00
64872;BME280;51351;51.450;6.614;2024-01-15T12:28:27;100037.72;;;2.42;100.00
64872;BME280;51351;51.450;6.614;2024-01-15T12:30:52;100041.34;;;2.39;100.00
64872;BME280;51351;51.450;6.614;2024-01-15T12:33:18;100034.84;;;2.34;100.00
64872;BME280;51351;51.450;6.614;2024-01-15T12:35:45;100049.16;;;2.25;100.00
64872;BME280;51351;51.450;6.614;2024-01-15T12:38:10;100058.09;;;2.20;100.00
64872;BME280;51351;51.450;6.614;2024-01-15T12:40:36;100059.44;;;2.13;100.00
64872;BME280;51351;51.450;6.614;2024-01-15T12:43:02;100055.41;;;2.09;100.00
64872;BME280;51351;51.450;6.614;2024-01-15T12:45:28;100066.22;;;2.01;100.00
64872;BME280;51351;51.450;6.614;2024-01-15T12:47:55;100066.50;;;1.97;100.00
64872;BME280;51351;51.450;6.614;2024-01-15T12:50:24;100062.47;;;1.93;100.00
64872;BME280;51351;51.450;6.614;2024-01-15T12:52:50;100063.59;;;1.89;100.00